Airfield :
LOGIN :

Register | Disclaimer

   EN    FR    IT 

 










Legend :    VFR   Marginal VFR   IFR   Intensive IFR   Very Intensive IFR
Visi :
Ceiling :
>= 8 km
>= 3000ft
5 to 8 km
1000 to 3000 ft
1500m to 5 km
500 to 1000 ft
800 to 1500m
200 to 500 ft
< 800m
< 200 ft
Symbols :   Thunderstorms  Fog  Heavy snow  Heavy precipitations  Wind > 20 kt
SIGMETs :     Misc.  Thunderstorms  Icing  Turbulence  Mountain Waves  Volcanic Ashes







- Airport Elevation : 1411 ft
- IATA code : GVA


LSGG - Genève Cointrin

CURRENT METAR :
  • 211920Z 03005KT 340V060 9999 FEW038 BKN280 24/14 Q1018 NOSIG

EXPIRED METARs :
  • 211850Z 32005KT 250V360 9999 FEW070 BKN280 25/12 Q1018 NOSIG
  • 211820Z 32005KT 270V030 9999 FEW070 BKN280 26/12 Q1017 NOSIG
  • 211750Z 32007KT 260V010 9999 FEW070 BKN280 26/12 Q1017 NOSIG
  • 211720Z 33006KT 280V020 CAVOK 27/12 Q1017 NOSIG
  • 211650Z 32006KT 270V020 9999 FEW070 BKN280 28/14 Q1017 NOSIG

TAF TAF LSGG
Valid from the 21 at 18:00 until the 23 at 00:00 UTC


211725Z 2118/2224 30007KT 9999 FEW070 TX23/2215Z TN14/2204Z
BECMG 2120/2123 05010KT CAVOK
BECMG 2208/2210 05020G30KT
BECMG 2220/2224 05010KT
ATIS : +41 22 417 40 81
No reported NOTAMs for that airfield.



MET'MAP, your aeronautical weather chart ! - Copyright ORBIFLY December 2007 - Disclaimer

ORBIFLY MET'MAP TEAM :

Programming & Development : Alexandra Zaïnal
Concept & Development : Baudouin d'Aumeries
Co-Development & Prog : Marc-Olivier Méhu
Technical & hardware support : Manuel Goepfert

Contact : metmap@orbifly.com




SOURCES & CREDITS :

   NOAA